createdAt,value
2019-04-29T00:01:07.070Z,21.90
2019-04-29T00:04:12.390Z,28.80
2019-04-29T00:07:17.772Z,21.93
2019-04-29T00:10:23.473Z,23.77
2019-04-29T00:13:29.068Z,24.37
2019-04-29T00:16:46.426Z,25.07
2019-04-29T00:20:09.521Z,22.10
2019-04-29T00:23:14.862Z,23.73
2019-04-29T00:26:20.101Z,21.70
2019-04-29T00:29:25.550Z,21.33
2019-04-29T00:32:31.088Z,24.87
2019-04-29T00:35:36.732Z,28.33
2019-04-29T00:39:04.000Z,26.27
2019-04-29T00:42:21.741Z,23.33
2019-04-29T00:45:27.026Z,25.03
2019-04-29T00:48:32.307Z,26.33
2019-04-29T00:51:37.571Z,25.23
2019-04-29T00:54:48.467Z,21.33
2019-04-29T00:57:53.788Z,25.03
2019-04-29T01:01:00.884Z,23.27
2019-04-29T01:04:06.206Z,24.83
2019-04-29T01:07:11.699Z,25.67
2019-04-29T01:10:19.350Z,24.73
2019-04-29T01:13:24.680Z,29.90
2019-04-29T01:16:33.287Z,30.67
2019-04-29T01:19:38.732Z,30.03
2019-04-29T01:22:44.046Z,28.03
2019-04-29T01:25:52.630Z,30.50
2019-04-29T01:28:58.207Z,22.73
2019-04-29T01:32:05.218Z,26.87
2019-04-29T01:35:10.558Z,28.20
2019-04-29T01:38:15.832Z,32.40
2019-04-29T01:41:23.246Z,29.93
2019-04-29T01:44:32.234Z,29.00
2019-04-29T01:47:39.182Z,27.10
2019-04-29T01:50:44.500Z,29.67
2019-04-29T01:53:49.790Z,26.10
2019-04-29T01:56:55.143Z,27.37
2019-04-29T02:00:00.362Z,33.97
2019-04-29T02:03:05.750Z,29.10
2019-04-29T02:06:11.023Z,28.87
2019-04-29T02:09:24.129Z,29.13
2019-04-29T02:12:29.451Z,33.53
2019-04-29T02:15:34.724Z,31.20
2019-04-29T02:18:41.730Z,29.50
2019-04-29T02:22:06.135Z,37.60
2019-04-29T02:25:16.410Z,31.63
2019-04-29T02:28:21.791Z,34.93
2019-04-29T02:31:40.180Z,34.03
2019-04-29T02:34:45.631Z,34.37
2019-04-29T02:37:50.986Z,37.97
2019-04-29T02:41:06.826Z,36.17
2019-04-29T02:44:12.987Z,28.40
2019-04-29T02:47:18.352Z,30.83
2019-04-29T02:50:23.713Z,33.57
2019-04-29T02:53:31.318Z,31.43
2019-04-29T02:56:37.037Z,30.27
2019-04-29T02:59:46.121Z,27.20
2019-04-29T03:03:07.380Z,26.70
2019-04-29T03:06:12.917Z,30.10
2019-04-29T03:09:18.233Z,31.53
2019-04-29T03:12:23.502Z,32.70
2019-04-29T03:15:33.979Z,34.40
2019-04-29T03:18:45.282Z,35.10
2019-04-29T03:21:55.823Z,35.07
2019-04-29T03:25:01.237Z,36.47
2019-04-29T03:28:06.832Z,38.57
2019-04-29T03:31:12.137Z,33.20
2019-04-29T03:34:17.411Z,36.43
2019-04-29T03:37:22.685Z,44.50
2019-04-29T03:40:27.963Z,38.50
2019-04-29T03:43:33.288Z,38.80
2019-04-29T03:46:38.626Z,37.50
2019-04-29T03:49:43.919Z,32.47
2019-04-29T03:52:49.214Z,36.17
2019-04-29T03:55:56.579Z,34.73
2019-04-29T03:59:02.903Z,41.80
2019-04-29T04:02:33.196Z,39.87
2019-04-29T04:06:03.508Z,40.40
2019-04-29T04:09:17.449Z,35.90
2019-04-29T04:12:22.685Z,37.53
2019-04-29T04:15:27.979Z,39.90
2019-04-29T04:18:35.376Z,35.53
2019-04-29T04:21:41.996Z,34.57
2019-04-29T04:24:47.482Z,31.90
2019-04-29T04:27:52.789Z,41.00
2019-04-29T04:30:58.170Z,40.50
2019-04-29T04:34:03.443Z,37.10
2019-04-29T04:37:09.744Z,34.20
2019-04-29T04:40:18.011Z,35.80
2019-04-29T04:43:23.305Z,38.80
2019-04-29T04:46:28.599Z,38.07
2019-04-29T04:49:34.084Z,37.57
2019-04-29T04:52:39.361Z,35.43
2019-04-29T04:55:46.256Z,35.87
2019-04-29T04:58:52.012Z,33.20
2019-04-29T05:01:57.278Z,37.77
2019-04-29T05:05:04.534Z,33.90
2019-04-29T05:08:09.823Z,33.47
2019-04-29T05:11:15.150Z,36.63
2019-04-29T05:14:20.431Z,36.07
2019-04-29T05:17:25.755Z,36.00
2019-04-29T05:20:33.434Z,40.53
2019-04-29T05:23:41.498Z,36.97
2019-04-29T05:26:46.610Z,37.87
2019-04-29T05:29:51.874Z,40.10
2019-04-29T05:32:59.584Z,31.80
2019-04-29T05:36:26.295Z,34.80
2019-04-29T05:39:36.660Z,37.53
2019-04-29T05:42:42.009Z,34.37
2019-04-29T05:46:09.406Z,34.20
2019-04-29T05:49:17.610Z,30.90
2019-04-29T05:52:39.570Z,35.03
2019-04-29T05:55:46.896Z,31.20
2019-04-29T05:58:52.309Z,36.83
2019-04-29T06:01:57.736Z,31.07
2019-04-29T06:05:03.153Z,33.60
2019-04-29T06:08:08.456Z,31.80
2019-04-29T06:11:13.827Z,30.37
2019-04-29T06:14:22.060Z,36.00
2019-04-29T06:17:26.218Z,30.53
2019-04-29T06:20:31.671Z,29.90
2019-04-29T06:23:37.990Z,34.63
2019-04-29T06:26:43.833Z,32.97
2019-04-29T06:29:49.498Z,24.97
2019-04-29T06:32:57.304Z,22.43
2019-04-29T06:36:02.608Z,19.37
2019-04-29T06:39:08.219Z,19.30
2019-04-29T06:42:15.441Z,18.07
2019-04-29T06:45:21.808Z,17.17
2019-04-29T06:48:27.235Z,19.07
2019-04-29T06:51:32.525Z,17.83
2019-04-29T06:54:37.850Z,18.97
2019-04-29T06:57:43.186Z,21.40
2019-04-29T07:00:50.901Z,21.57
2019-04-29T07:03:59.419Z,23.03
2019-04-29T07:07:04.089Z,19.10
2019-04-29T07:10:10.059Z,19.50
2019-04-29T07:13:17.866Z,16.50
2019-04-29T07:16:27.306Z,18.70
2019-04-29T07:19:29.390Z,16.60
2019-04-29T07:22:34.750Z,16.67
2019-04-29T07:25:40.098Z,16.07
2019-04-29T07:28:48.674Z,14.07
2019-04-29T07:31:54.098Z,15.80
2019-04-29T07:34:59.434Z,14.60
2019-04-29T07:38:08.545Z,15.17
2019-04-29T07:41:14.304Z,13.50
2019-04-29T07:44:21.056Z,14.30
2019-04-29T07:47:29.431Z,16.50
2019-04-29T07:50:33.369Z,13.90
2019-04-29T07:53:45.063Z,14.17
2019-04-29T07:56:45.616Z,12.33
2019-04-29T07:59:50.873Z,13.80
2019-04-29T08:02:56.185Z,14.43
2019-04-29T08:06:01.932Z,12.60
2019-04-29T08:09:09.747Z,11.27
2019-04-29T08:12:15.851Z,12.00
2019-04-29T08:15:22.863Z,11.80
2019-04-29T08:18:28.226Z,10.60
2019-04-29T08:21:34.515Z,11.53
2019-04-29T08:24:39.811Z,12.47
2019-04-29T08:27:45.086Z,12.83
2019-04-29T08:30:50.378Z,14.57
2019-04-29T08:33:55.740Z,9.13
2019-04-29T08:37:01.266Z,9.47
2019-04-29T08:40:16.031Z,10.13
2019-04-29T08:43:41.804Z,5.70
2019-04-29T08:46:52.900Z,6.83
2019-04-29T08:49:58.304Z,5.80
2019-04-29T08:53:03.945Z,7.30
2019-04-29T08:56:10.322Z,6.70
2019-04-29T08:59:16.534Z,6.43
2019-04-29T09:02:33.858Z,6.93
2019-04-29T09:05:31.964Z,6.07
2019-04-29T09:08:37.502Z,6.17
2019-04-29T09:11:47.696Z,8.00
2019-04-29T09:14:49.887Z,9.13
2019-04-29T09:17:55.161Z,6.20
2019-04-29T09:21:00.511Z,7.27
2019-04-29T09:24:05.936Z,6.73
2019-04-29T09:27:15.523Z,6.70
2019-04-29T09:30:20.973Z,11.47
2019-04-29T09:33:26.295Z,7.90
2019-04-29T09:36:32.686Z,6.67
2019-04-29T09:39:43.422Z,8.30
2019-04-29T09:43:15.656Z,7.10
2019-04-29T09:46:30.111Z,7.17
2019-04-29T09:49:34.110Z,6.13
2019-04-29T09:52:39.398Z,9.03
2019-04-29T09:55:44.675Z,7.60
2019-04-29T09:58:52.010Z,9.80
2019-04-29T10:02:26.262Z,9.60
2019-04-29T10:05:42.975Z,8.37
2019-04-29T10:08:50.601Z,12.23
2019-04-29T10:11:56.038Z,8.23
2019-04-29T10:15:01.357Z,8.20
2019-04-29T10:18:29.783Z,8.33
2019-04-29T10:21:36.881Z,9.60
2019-04-29T10:24:42.088Z,9.77
2019-04-29T10:27:47.388Z,10.70
2019-04-29T10:30:52.686Z,10.47
2019-04-29T10:33:58.085Z,13.83
2019-04-29T10:37:03.384Z,12.27
2019-04-29T10:40:20.868Z,13.73
2019-04-29T10:43:39.691Z,17.33
2019-04-29T10:47:02.511Z,15.20
2019-04-29T10:50:27.044Z,16.20
2019-04-29T10:53:32.319Z,20.60
2019-04-29T10:56:39.450Z,20.20
2019-04-29T10:59:50.165Z,17.70
2019-04-29T11:02:54.253Z,18.10
2019-04-29T11:06:01.782Z,18.20
2019-04-29T11:09:28.592Z,22.83
2019-04-29T11:12:33.958Z,23.93
2019-04-29T11:15:39.357Z,24.67
2019-04-29T11:18:47.743Z,22.87
2019-04-29T11:21:51.920Z,22.10
2019-04-29T11:25:30.229Z,21.30
2019-04-29T11:28:38.324Z,22.67
2019-04-29T11:31:43.910Z,28.03
2019-04-29T11:35:24.546Z,23.80
2019-04-29T11:38:33.447Z,25.63
2019-04-29T11:41:37.399Z,26.73
2019-04-29T11:44:42.719Z,25.83
2019-04-29T11:47:47.993Z,28.63
2019-04-29T11:51:04.586Z,29.57
2019-04-29T11:54:12.726Z,28.90
2019-04-29T11:57:40.134Z,29.37
2019-04-29T12:00:52.873Z,28.43
2019-04-29T12:03:59.113Z,28.20
2019-04-29T12:07:06.029Z,30.87
2019-04-29T12:10:11.877Z,25.77
2019-04-29T12:13:28.359Z,27.17
2019-04-29T12:16:38.219Z,30.80
2019-04-29T12:19:44.344Z,28.90
2019-04-29T12:22:49.687Z,22.33
2019-04-29T12:25:58.646Z,23.47
2019-04-29T12:29:01.950Z,24.07
2019-04-29T12:32:37.029Z,26.20
2019-04-29T12:35:58.568Z,27.60
2019-04-29T12:39:42.749Z,28.17
2019-04-29T12:42:55.720Z,29.27
2019-04-29T12:46:26.199Z,21.93
2019-04-29T12:49:31.644Z,25.63
2019-04-29T12:52:37.002Z,24.37
2019-04-29T12:55:47.300Z,28.53
2019-04-29T12:58:54.943Z,27.90
2019-04-29T13:02:19.961Z,27.47
2019-04-29T13:05:58.404Z,26.70
2019-04-29T13:09:17.625Z,28.67
2019-04-29T13:12:19.726Z,29.30
2019-04-29T13:15:43.802Z,26.80
2019-04-29T13:19:11.867Z,28.10
2019-04-29T13:22:15.602Z,26.20
2019-04-29T13:25:20.852Z,23.80
2019-04-29T13:28:30.351Z,28.90
2019-04-29T13:31:38.519Z,30.10
2019-04-29T13:34:43.020Z,28.17
2019-04-29T13:37:48.442Z,25.07
2019-04-29T13:41:11.977Z,26.10
2019-04-29T13:44:05.408Z,24.63
2019-04-29T13:47:36.939Z,30.13
2019-04-29T13:50:48.806Z,27.43
2019-04-29T13:53:55.305Z,23.20
2019-04-29T13:57:09.414Z,27.17
2019-04-29T14:00:28.414Z,28.27
2019-04-29T14:03:55.648Z,23.93
2019-04-29T14:07:01.054Z,23.60
2019-04-29T14:10:10.366Z,26.30
2019-04-29T14:13:17.678Z,27.00
2019-04-29T14:16:22.013Z,25.30
2019-04-29T14:19:41.091Z,28.77
2019-04-29T14:22:35.231Z,28.20
2019-04-29T14:25:40.568Z,30.63
2019-04-29T14:28:46.254Z,27.37
2019-04-29T14:31:59.129Z,29.03
2019-04-29T14:35:11.754Z,29.87
2019-04-29T14:38:16.564Z,28.20
2019-04-29T14:41:21.884Z,27.63
2019-04-29T14:44:44.059Z,28.60
2019-04-29T14:48:08.306Z,28.20
2019-04-29T14:51:13.841Z,33.17
2019-04-29T14:54:19.249Z,28.53
2019-04-29T14:57:24.569Z,28.03
2019-04-29T15:00:54.636Z,30.60
2019-04-29T15:04:17.405Z,26.83
2019-04-29T15:07:12.311Z,31.50
2019-04-29T15:10:19.576Z,29.00
2019-04-29T15:13:25.887Z,30.10
2019-04-29T15:16:36.623Z,31.70
2019-04-29T15:19:55.865Z,27.40
2019-04-29T15:23:01.357Z,29.87
2019-04-29T15:26:06.701Z,25.60
2019-04-29T15:29:12.134Z,27.70
2019-04-29T15:32:17.916Z,27.23
2019-04-29T15:35:25.621Z,29.57
2019-04-29T15:38:32.508Z,30.10
2019-04-29T15:41:40.368Z,34.37
2019-04-29T15:44:45.832Z,31.53
2019-04-29T15:47:51.317Z,31.70
2019-04-29T15:50:56.628Z,27.70
2019-04-29T15:54:01.932Z,23.33
2019-04-29T15:57:15.133Z,30.10
2019-04-29T16:00:21.882Z,25.90
2019-04-29T16:03:24.938Z,21.77
2019-04-29T16:07:01.448Z,19.77
2019-04-29T16:10:21.933Z,21.70
2019-04-29T16:13:27.922Z,19.50
2019-04-29T16:16:34.539Z,19.27
2019-04-29T16:19:52.934Z,15.37
2019-04-29T16:23:00.570Z,19.17
2019-04-29T16:26:03.655Z,15.83
2019-04-29T16:29:13.010Z,18.07
2019-04-29T16:32:24.982Z,19.10
2019-04-29T16:35:34.884Z,15.40
2019-04-29T16:38:40.671Z,13.67
2019-04-29T16:42:04.521Z,15.83
2019-04-29T16:45:14.415Z,16.03
2019-04-29T16:48:19.946Z,20.37
2019-04-29T16:51:25.225Z,15.03
2019-04-29T16:54:30.557Z,15.00
2019-04-29T16:57:35.926Z,16.57
2019-04-29T17:00:46.517Z,17.47
2019-04-29T17:03:48.572Z,15.80
2019-04-29T17:07:11.743Z,14.87
2019-04-29T17:10:22.669Z,19.37
2019-04-29T17:13:28.486Z,15.27
2019-04-29T17:16:33.981Z,17.60
2019-04-29T17:19:39.680Z,20.20
2019-04-29T17:22:46.827Z,16.63
2019-04-29T17:25:52.268Z,17.80
2019-04-29T17:29:26.721Z,18.87
2019-04-29T17:32:42.622Z,19.07
2019-04-29T17:35:42.895Z,17.63
2019-04-29T17:38:45.870Z,19.77
2019-04-29T17:41:52.824Z,21.40
2019-04-29T17:45:01.358Z,18.20
2019-04-29T17:48:18.351Z,23.37
2019-04-29T17:52:15.876Z,20.10
2019-04-29T17:57:25.169Z,17.37
2019-04-29T18:00:42.170Z,20.03
2019-04-29T18:04:11.788Z,20.83
2019-04-29T18:07:32.070Z,19.70
2019-04-29T18:10:45.694Z,19.23
2019-04-29T18:13:52.527Z,21.47
2019-04-29T18:16:59.316Z,21.27
2019-04-29T18:24:01.491Z,23.70
2019-04-29T18:27:10.185Z,23.97
2019-04-29T18:30:19.468Z,27.80
2019-04-29T18:33:26.000Z,29.30
2019-04-29T18:36:29.964Z,31.17
2019-04-29T18:39:35.754Z,24.70
2019-04-29T18:42:48.445Z,27.60
2019-04-29T18:45:56.257Z,26.37
2019-04-29T18:49:02.955Z,29.20
2019-04-29T18:52:07.846Z,31.30
2019-04-29T18:55:13.362Z,33.83
2019-04-29T18:58:18.667Z,34.57
2019-04-29T19:01:28.555Z,37.57
2019-04-29T19:04:53.456Z,35.90
2019-04-29T19:08:11.393Z,35.90
2019-04-29T19:11:09.231Z,38.93
2019-04-29T19:14:20.571Z,33.90
2019-04-29T19:17:30.901Z,37.50
2019-04-29T19:20:35.908Z,36.23
2019-04-29T19:23:41.567Z,34.70
2019-04-29T19:26:46.885Z,34.63
2019-04-29T19:29:52.230Z,35.70
2019-04-29T19:33:00.451Z,39.87
2019-04-29T19:36:13.386Z,39.87
2019-04-29T19:39:16.906Z,41.97
2019-04-29T19:42:31.029Z,48.77
2019-04-29T19:45:33.371Z,41.47
2019-04-29T19:48:38.985Z,51.47
2019-04-29T19:51:47.285Z,49.73
2019-04-29T19:54:51.564Z,55.47
2019-04-29T19:57:58.437Z,55.40
2019-04-29T20:01:11.775Z,51.07
2019-04-29T20:04:30.217Z,57.03
2019-04-29T20:07:41.209Z,49.33
2019-04-29T20:10:47.976Z,50.57
2019-04-29T20:14:01.970Z,57.40
2019-04-29T20:17:36.790Z,51.13
2019-04-29T20:21:08.665Z,50.00
2019-04-29T20:24:09.403Z,59.27
2019-04-29T20:27:16.934Z,57.53
2019-04-29T20:30:22.572Z,53.60
2019-04-29T20:33:28.266Z,54.30
2019-04-29T20:36:41.649Z,54.03
2019-04-29T20:39:40.808Z,57.83
2019-04-29T20:42:49.041Z,61.60
2019-04-29T20:45:53.252Z,63.07
2019-04-29T20:48:59.887Z,59.63
2019-04-29T20:52:22.025Z,52.30
2019-04-29T20:55:27.711Z,60.67
2019-04-29T20:58:33.399Z,51.63
2019-04-29T21:01:43.319Z,57.97
2019-04-29T21:04:49.392Z,59.70
2019-04-29T21:08:03.118Z,53.03
2019-04-29T21:11:05.767Z,62.90
2019-04-29T21:14:17.629Z,65.63
2019-04-29T21:17:29.420Z,56.67
2019-04-29T21:20:31.874Z,69.13
2019-04-29T21:23:38.782Z,53.50
2019-04-29T21:26:45.789Z,60.70
2019-04-29T21:29:54.101Z,64.20
2019-04-29T21:32:59.243Z,61.53
2019-04-29T21:36:33.014Z,58.80
2019-04-29T21:39:46.682Z,61.00
2019-04-29T21:42:55.472Z,63.37
2019-04-29T21:46:00.872Z,59.33
2019-04-29T21:49:11.507Z,61.03
2019-04-29T21:52:15.236Z,58.00
2019-04-29T21:55:24.813Z,66.47
2019-04-29T21:58:28.675Z,72.47
2019-04-29T22:01:37.484Z,56.70
2019-04-29T22:04:45.026Z,65.60
2019-04-29T22:07:50.720Z,61.17
2019-04-29T22:10:59.680Z,69.23
2019-04-29T22:14:05.596Z,54.43
2019-04-29T22:17:17.893Z,59.83
2019-04-29T22:20:23.179Z,57.87
2019-04-29T22:23:28.594Z,58.33
2019-04-29T22:26:35.061Z,74.83
2019-04-29T22:29:40.635Z,66.67
2019-04-29T22:32:47.134Z,65.20
2019-04-29T22:35:53.005Z,55.40
2019-04-29T22:38:58.264Z,65.17
2019-04-29T22:42:14.810Z,60.00
2019-04-29T22:45:23.131Z,58.83
2019-04-29T22:48:28.490Z,56.57
2019-04-29T22:51:35.449Z,62.30
2019-04-29T22:54:40.926Z,61.53
2019-04-29T22:57:46.928Z,59.43
2019-04-29T23:00:52.346Z,59.73
2019-04-29T23:03:57.625Z,60.30
2019-04-29T23:07:03.046Z,63.00
2019-04-29T23:10:08.586Z,68.17
2019-04-29T23:13:13.936Z,64.60
2019-04-29T23:16:20.778Z,62.40
2019-04-29T23:19:31.672Z,64.50
2019-04-29T23:22:43.503Z,66.63
2019-04-29T23:25:50.960Z,64.07
2019-04-29T23:28:59.446Z,56.70
2019-04-29T23:32:06.760Z,63.17
2019-04-29T23:35:10.605Z,54.93
2019-04-29T23:38:16.093Z,64.50
2019-04-29T23:41:26.099Z,57.00
2019-04-29T23:44:29.888Z,63.80
2019-04-29T23:47:35.724Z,59.80
2019-04-29T23:50:41.240Z,56.17
2019-04-29T23:53:46.675Z,60.70
2019-04-29T23:57:08.929Z,57.07
